Time;durP1;ratioP1;P1;durP2;ratioP2;P2;SDS_P1;SDS_P2;PMS_P1;PMS_P2;Temp;Humidity;BMP_temperature;BMP_pressure;BME280_temperature;BME280_humidity;BME280_pressure;Samples;Min_cycle;Max_cycle;Signal;HPM_P1;HPM_P2
2023/02/05 00:01:39;;;;;;;3.83;2.93;;;;;;;-0.29;100.00;104029.53;5013117;28;20219;-66
2023/02/05 00:04:05;;;;;;;4.13;2.83;;;;;;;-0.30;100.00;104026.84;5015410;28;20227;-66
2023/02/05 00:06:31;;;;;;;5.43;2.50;;;;;;;-0.28;100.00;104015.31;5017292;28;20219;-65
2023/02/05 00:08:57;;;;;;;4.90;2.77;;;;;;;-0.30;100.00;103997.53;5016244;28;20190;-66
2023/02/05 00:11:22;;;;;;;3.23;2.43;;;;;;;-0.32;100.00;103991.41;5017602;28;20717;-66
2023/02/05 00:13:48;;;;;;;4.60;2.80;;;;;;;-0.33;100.00;103976.13;5013016;28;20204;-67
2023/02/05 00:16:17;;;;;;;5.43;2.73;;;;;;;-0.32;100.00;103973.81;5018313;28;20210;-65
2023/02/05 00:18:43;;;;;;;5.07;2.80;;;;;;;-0.33;100.00;103968.59;5020482;28;20215;-65
2023/02/05 00:21:09;;;;;;;2.87;2.53;;;;;;;-0.37;100.00;103967.34;5007636;28;20570;-65
2023/02/05 00:23:35;;;;;;;3.30;2.50;;;;;;;-0.39;100.00;103977.97;5005696;28;20562;-65
2023/02/05 00:26:02;;;;;;;3.23;2.80;;;;;;;-0.40;100.00;103974.53;5009972;28;20217;-65
2023/02/05 00:28:30;;;;;;;3.83;2.30;;;;;;;-0.44;100.00;103967.41;5009583;28;20502;-66
2023/02/05 00:30:55;;;;;;;3.53;2.90;;;;;;;-0.45;100.00;103964.72;5010194;28;20191;-65
2023/02/05 00:33:21;;;;;;;3.83;2.43;;;;;;;-0.47;100.00;103964.53;5011548;28;20675;-66
2023/02/05 00:35:48;;;;;;;7.67;3.17;;;;;;;-0.45;100.00;103964.72;5012024;28;20225;-66
2023/02/05 00:38:13;;;;;;;5.57;2.60;;;;;;;-0.47;100.00;103959.50;5006682;28;20223;-68
2023/02/05 00:40:38;;;;;;;4.23;2.27;;;;;;;-0.45;100.00;103957.16;5010380;28;20203;-66
2023/02/05 00:43:04;;;;;;;3.87;2.73;;;;;;;-0.49;100.00;103942.44;5013995;28;20226;-66
2023/02/05 00:45:33;;;;;;;5.70;2.63;;;;;;;-0.53;100.00;103938.69;5011870;28;20211;-65
2023/02/05 00:48:03;;;;;;;4.07;2.60;;;;;;;-0.57;100.00;103928.09;5012216;28;20195;-67
2023/02/05 00:50:29;;;;;;;4.03;2.60;;;;;;;-0.57;100.00;103925.56;5013518;28;20198;-67
2023/02/05 00:52:55;;;;;;;4.47;2.70;;;;;;;-0.58;100.00;103912.13;5005993;28;20752;-65
2023/02/05 00:55:21;;;;;;;5.60;3.10;;;;;;;-0.58;100.00;103914.63;5016651;28;20214;-65
2023/02/05 00:57:47;;;;;;;4.70;2.60;;;;;;;-0.61;100.00;103911.75;5020160;28;20214;-65
2023/02/05 01:00:13;;;;;;;5.20;2.70;;;;;;;-0.61;100.00;103915.88;5018422;28;20217;-66
2023/02/05 01:02:38;;;;;;;5.43;2.67;;;;;;;-0.62;100.00;103914.09;5021498;28;20218;-66
2023/02/05 01:05:04;;;;;;;3.67;2.60;;;;;;;-0.63;100.00;103925.78;5021829;28;20640;-66
2023/02/05 01:07:29;;;;;;;6.67;2.73;;;;;;;-0.67;100.00;103927.78;5004627;28;20253;-65
2023/02/05 01:09:55;;;;;;;4.80;2.70;;;;;;;-0.68;100.00;103919.31;5006755;28;20203;-67
2023/02/05 01:12:20;;;;;;;5.77;2.33;;;;;;;-0.72;100.00;103909.63;5006571;28;20226;-66
2023/02/05 01:14:46;;;;;;;4.20;2.53;;;;;;;-0.72;100.00;103902.09;5011162;28;20719;-66
2023/02/05 01:17:11;;;;;;;3.50;2.13;;;;;;;-0.71;100.00;103898.88;5013804;28;20206;-66
2023/02/05 01:19:37;;;;;;;4.00;2.53;;;;;;;-0.72;100.00;103901.22;5010985;28;20218;-67
2023/02/05 01:22:03;;;;;;;3.87;2.67;;;;;;;-0.76;100.00;103896.56;5036186;28;20183;-66
2023/02/05 01:24:29;;;;;;;4.23;2.70;;;;;;;-0.76;100.00;103894.03;5015105;28;20242;-67
2023/02/05 01:26:57;;;;;;;3.80;2.43;;;;;;;-0.84;100.00;103887.25;5014691;28;20186;-66
2023/02/05 01:29:26;;;;;;;3.87;2.50;;;;;;;-0.83;100.00;103884.91;5006253;28;20193;-67
2023/02/05 01:31:52;;;;;;;3.63;2.87;;;;;;;-0.86;100.00;103886.19;5018196;28;20202;-66
2023/02/05 01:34:18;;;;;;;3.57;2.77;;;;;;;-0.87;100.00;103879.38;5015281;28;20191;-67
2023/02/05 01:36:43;;;;;;;3.07;2.23;;;;;;;-0.84;100.00;103867.13;5020004;28;20183;-65
2023/02/05 01:39:09;;;;;;;5.83;2.30;;;;;;;-0.87;100.00;103865.16;5016792;28;20610;-67
2023/02/05 01:41:34;;;;;;;2.97;2.00;;;;;;;-0.85;100.00;103861.22;5017188;28;20228;-65
2023/02/05 01:44:28;;;;;;;4.13;2.53;;;;;;;-0.86;100.00;103859.41;5023465;28;20182;-67
2023/02/05 01:46:55;;;;;;;3.00;2.10;;;;;;;-0.86;100.00;103853.50;5016964;28;20291;-64
2023/02/05 01:49:29;;;;;;;3.73;2.60;;;;;;;-0.91;100.00;103858.00;5020583;28;20190;-66
2023/02/05 01:51:58;;;;;;;4.70;2.60;;;;;;;-0.93;100.00;103853.53;5024355;28;20190;-67
2023/02/05 01:54:27;;;;;;;3.17;2.20;;;;;;;-0.94;100.00;103859.28;5018046;28;20275;-66
2023/02/05 01:57:00;;;;;;;5.63;2.67;;;;;;;-0.99;100.00;103848.72;5015818;28;20191;-67
2023/02/05 01:59:29;;;;;;;2.63;2.30;;;;;;;-1.01;100.00;103854.31;5007868;28;20290;-67
2023/02/05 02:01:55;;;;;;;4.33;2.07;;;;;;;-1.03;100.00;103849.09;5008133;28;20195;-65
2023/02/05 02:04:53;;;;;;;3.87;2.40;;;;;;;-1.01;100.00;103849.28;5001434;28;20188;-66
2023/02/05 02:07:22;;;;;;;3.13;2.23;;;;;;;-1.01;100.00;103857.69;5019912;28;20273;-66
2023/02/05 02:09:49;;;;;;;3.47;2.23;;;;;;;-1.06;100.00;103845.34;5014605;28;20195;-65
2023/02/05 02:12:20;;;;;;;3.33;2.33;;;;;;;-1.06;100.00;103846.22;5011182;28;20196;-67
2023/02/05 02:14:50;;;;;;;4.87;2.40;;;;;;;-1.05;100.00;103848.00;5012838;28;20203;-65
2023/02/05 02:17:17;;;;;;;5.03;2.47;;;;;;;-1.05;100.00;103844.63;5014370;28;20183;-65
2023/02/05 02:19:45;;;;;;;4.67;1.80;;;;;;;-1.07;100.00;103834.38;5016548;28;20218;-66
2023/02/05 02:22:32;;;;;;;4.07;2.60;;;;;;;-1.12;100.00;103837.09;5014910;28;20183;-65
2023/02/05 02:25:38;;;;;;;5.23;2.10;;;;;;;-1.08;100.00;103834.19;5010988;28;20276;-67
2023/02/05 02:28:10;;;;;;;2.83;2.13;;;;;;;-1.10;100.00;103836.53;5011405;28;20213;-66
2023/02/05 02:30:42;;;;;;;6.03;2.07;;;;;;;-1.12;100.00;103834.56;5017397;28;20223;-66
2023/02/05 02:33:22;;;;;;;4.83;2.57;;;;;;;-1.17;100.00;103839.09;5017211;28;20202;-63
2023/02/05 02:35:59;;;;;;;3.87;2.40;;;;;;;-1.14;100.00;103843.56;5016305;28;20271;-65
2023/02/05 02:38:38;;;;;;;3.00;2.10;;;;;;;-1.16;100.00;103834.94;5013452;28;20218;-66
2023/02/05 02:41:13;;;;;;;3.87;2.60;;;;;;;-1.10;100.00;103823.09;5020924;28;20841;-66
2023/02/05 02:44:01;;;;;;;3.87;2.30;;;;;;;-1.13;100.00;103832.78;5019210;28;20190;-66
2023/02/05 02:46:35;;;;;;;3.60;2.20;;;;;;;-1.13;100.00;103833.69;5034598;28;20219;-65
2023/02/05 02:49:04;;;;;;;5.70;2.13;;;;;;;-1.14;100.00;103834.38;5010401;28;20187;-65
2023/02/05 02:51:32;;;;;;;2.67;2.20;;;;;;;-1.11;100.00;103834.75;5011787;28;20197;-65
2023/02/05 02:54:02;;;;;;;3.57;2.20;;;;;;;-1.13;100.00;103837.81;5011566;28;20218;-66
2023/02/05 02:56:31;;;;;;;3.00;2.10;;;;;;;-1.13;100.00;103826.16;5007759;28;20310;-66
2023/02/05 02:59:07;;;;;;;2.97;2.10;;;;;;;-1.11;100.00;103821.28;5012747;28;20350;-66
2023/02/05 03:01:37;;;;;;;3.13;1.93;;;;;;;-1.10;100.00;103818.94;5007033;28;20194;-64
2023/02/05 03:04:17;;;;;;;3.90;2.40;;;;;;;-1.08;100.00;103821.63;5017444;28;20547;-64
2023/02/05 03:06:46;;;;;;;3.73;2.00;;;;;;;-1.08;100.00;103826.66;5015189;28;20206;-64
2023/02/05 03:09:25;;;;;;;2.73;2.07;;;;;;;-1.03;100.00;103823.94;5018635;28;20203;-67
2023/02/05 03:11:50;;;;;;;4.00;2.20;;;;;;;-1.01;100.00;103821.63;5016997;28;20187;-66
2023/02/05 03:14:16;;;;;;;3.33;1.90;;;;;;;-1.01;100.00;103807.41;5020614;28;20282;-67
2023/02/05 03:16:42;;;;;;;5.53;2.20;;;;;;;-0.98;100.00;103816.91;5016257;28;20207;-66
2023/02/05 03:19:08;;;;;;;3.07;2.20;;;;;;;-0.97;100.00;103812.06;5020965;28;20675;-66
2023/02/05 03:21:55;;;;;;;4.07;2.13;;;;;;;-0.93;100.00;103823.34;5020547;28;20209;-66
2023/02/05 03:24:21;;;;;;;3.90;1.97;;;;;;;-0.93;100.00;103828.38;5018476;28;20655;-66
2023/02/05 03:26:47;;;;;;;3.67;2.03;;;;;;;-0.94;100.00;103831.63;5026052;28;20240;-67
2023/02/05 03:29:24;;;;;;;2.90;2.30;;;;;;;-0.89;100.00;103833.94;5012616;28;20855;-66
2023/02/05 03:31:51;;;;;;;3.47;2.00;;;;;;;-0.86;100.00;103829.22;5021014;28;20247;-66
2023/02/05 03:34:47;;;;;;;3.23;2.13;;;;;;;-0.83;100.00;103827.06;5017095;28;20543;-67
2023/02/05 03:37:31;;;;;;;2.50;2.20;;;;;;;-0.80;100.00;103813.94;5036841;28;20202;-66
2023/02/05 03:40:38;;;;;;;3.13;2.13;;;;;;;-0.72;100.00;103815.72;5034834;28;20322;-64
2023/02/05 03:43:29;;;;;;;2.97;2.03;;;;;;;-0.67;100.00;103825.56;5006567;28;20340;-66
2023/02/05 03:46:05;;;;;;;3.90;2.13;;;;;;;-0.68;100.00;103816.22;5033520;28;20210;-67
2023/02/05 03:48:31;;;;;;;3.47;1.93;;;;;;;-0.68;100.00;103802.75;5030737;28;20658;-66
2023/02/05 03:51:21;;;;;;;4.37;2.20;;;;;;;-0.65;100.00;103800.56;5035608;28;20186;-66
2023/02/05 03:53:53;;;;;;;3.77;2.10;;;;;;;-0.64;100.00;103798.22;5029866;28;20190;-66
2023/02/05 03:56:58;;;;;;;3.80;2.10;;;;;;;-0.62;100.00;103789.25;5030446;28;20584;-67
2023/02/05 03:59:26;;;;;;;3.53;2.10;;;;;;;-0.61;100.00;103783.47;5034772;28;20222;-66
2023/02/05 04:01:53;;;;;;;3.90;2.10;;;;;;;-0.58;100.00;103777.88;5039957;28;20202;-66
2023/02/05 04:04:20;;;;;;;3.00;2.40;;;;;;;-0.55;100.00;103768.19;5033682;28;20729;-66
2023/02/05 04:06:48;;;;;;;4.27;2.00;;;;;;;-0.56;100.00;103762.25;5039087;28;20213;-66
2023/02/05 04:09:14;;;;;;;4.63;2.20;;;;;;;-0.56;100.00;103758.81;5039910;28;20191;-66
2023/02/05 04:11:40;;;;;;;3.77;2.37;;;;;;;-0.58;100.00;103757.75;5039920;28;20190;-66
2023/02/05 04:14:05;;;;;;;3.37;2.10;;;;;;;-0.57;100.00;103755.44;5044680;28;20197;-67
2023/02/05 04:16:31;;;;;;;2.63;2.07;;;;;;;-0.61;100.00;103743.22;5050557;28;20206;-68
2023/02/05 04:18:58;;;;;;;4.87;2.20;;;;;;;-0.66;100.00;103735.91;5038135;28;20213;-66
2023/02/05 04:21:25;;;;;;;3.17;1.90;;;;;;;-0.66;100.00;103736.81;5036255;28;20190;-66
2023/02/05 04:23:51;;;;;;;3.87;2.10;;;;;;;-0.67;100.00;103742.56;5034639;28;20198;-66
2023/02/05 04:26:16;;;;;;;3.37;2.30;;;;;;;-0.67;100.00;103754.25;5036319;28;20257;-67
2023/02/05 04:28:50;;;;;;;3.07;2.13;;;;;;;-0.66;100.00;103749.38;5036643;28;20530;-66
2023/02/05 04:31:16;;;;;;;2.57;2.13;;;;;;;-0.68;100.00;103742.41;5030307;28;20204;-65
2023/02/05 04:33:42;;;;;;;4.23;1.90;;;;;;;-0.67;100.00;103736.63;5026216;28;20281;-65
2023/02/05 04:36:10;;;;;;;4.70;2.10;;;;;;;-0.68;100.00;103738.25;5031800;28;20209;-66
2023/02/05 04:38:36;;;;;;;3.17;2.10;;;;;;;-0.69;100.00;103738.09;5034420;28;20217;-66
2023/02/05 04:41:02;;;;;;;3.50;2.30;;;;;;;-0.69;100.00;103738.09;5025469;28;20196;-65
2023/02/05 04:43:27;;;;;;;4.90;2.40;;;;;;;-0.71;100.00;103737.91;5035096;28;20205;-65
2023/02/05 04:45:53;;;;;;;3.10;2.33;;;;;;;-0.73;100.00;103736.84;5041004;28;20241;-65
2023/02/05 04:48:20;;;;;;;3.30;2.40;;;;;;;-0.70;100.00;103741.31;5042947;28;20232;-65
2023/02/05 04:50:46;;;;;;;2.63;2.13;;;;;;;-0.72;100.00;103736.09;5041359;28;20243;-66
2023/02/05 04:53:11;;;;;;;3.73;2.33;;;;;;;-0.73;100.00;103736.84;5044604;28;20193;-66
2023/02/05 04:55:36;;;;;;;4.63;2.53;;;;;;;-0.74;100.00;103737.56;5036936;28;22746;-65
2023/02/05 04:58:02;;;;;;;3.60;2.33;;;;;;;-0.75;100.00;103737.41;5040953;28;20217;-66
2023/02/05 05:00:27;;;;;;;3.50;2.37;;;;;;;-0.77;100.00;103732.19;5042289;28;20277;-66
2023/02/05 05:02:53;;;;;;;3.30;2.80;;;;;;;-0.78;100.00;103720.34;5047320;28;20196;-65
2023/02/05 05:05:18;;;;;;;4.70;2.27;;;;;;;-0.85;100.00;103707.84;5038465;28;20229;-66
2023/02/05 05:07:44;;;;;;;2.27;2.03;;;;;;;-0.77;100.00;103707.03;5043845;28;20193;-67
2023/02/05 05:10:10;;;;;;;2.97;1.90;;;;;;;-0.78;100.00;103707.78;5041741;28;20193;-66
2023/02/05 05:12:36;;;;;;;5.00;2.70;;;;;;;-0.77;100.00;103696.13;5042080;28;20209;-67
2023/02/05 05:15:04;;;;;;;3.63;2.50;;;;;;;-0.75;100.00;103694.66;5041119;28;20214;-67
2023/02/05 05:17:29;;;;;;;3.53;2.50;;;;;;;-0.72;100.00;103702.53;5042077;28;20194;-66
2023/02/05 05:19:55;;;;;;;6.47;2.50;;;;;;;-0.73;100.00;103706.66;5039678;28;20221;-66
2023/02/05 05:22:20;;;;;;;4.33;2.80;;;;;;;-0.69;100.00;103715.47;5030504;28;20725;-67
2023/02/05 05:24:46;;;;;;;3.57;2.40;;;;;;;-0.66;100.00;103706.63;5032877;28;20213;-65
2023/02/05 05:27:11;;;;;;;3.83;2.40;;;;;;;-0.66;100.00;103701.59;5028136;28;20206;-67
2023/02/05 05:29:37;;;;;;;4.13;2.40;;;;;;;-0.64;100.00;103696.75;5033065;28;20190;-67
2023/02/05 05:32:03;;;;;;;3.10;2.37;;;;;;;-0.65;100.00;103698.34;5033402;28;20674;-66
2023/02/05 05:34:28;;;;;;;3.43;2.20;;;;;;;-0.63;100.00;103690.97;5032374;28;20547;-66
2023/02/05 05:36:54;;;;;;;3.87;2.30;;;;;;;-0.62;100.00;103676.06;5033868;28;20187;-66
2023/02/05 05:44:53;;;;;;;4.00;2.47;;;;;;;-0.59;100.00;103658.75;5039825;28;20209;-65
2023/02/05 05:47:19;;;;;;;3.40;2.70;;;;;;;-0.60;100.00;103664.53;5039666;28;20252;-65
2023/02/05 05:49:45;;;;;;;2.50;2.03;;;;;;;-0.56;100.00;103660.72;5033569;28;20190;-65
2023/02/05 05:52:11;;;;;;;4.17;2.67;;;;;;;-0.56;100.00;103661.63;5033294;28;20233;-65
2023/02/05 05:54:37;;;;;;;5.77;2.70;;;;;;;-0.54;100.00;103665.19;5032755;28;20250;-66
2023/02/05 05:57:02;;;;;;;3.70;2.70;;;;;;;-0.50;100.00;103662.28;5039832;28;20198;-66
2023/02/05 05:59:28;;;;;;;4.30;2.70;;;;;;;-0.47;100.00;103655.06;5034091;28;20806;-67
2023/02/05 06:01:53;;;;;;;2.67;2.20;;;;;;;-0.44;100.00;103644.44;5041961;28;20190;-66
2023/02/05 06:04:19;;;;;;;4.73;2.50;;;;;;;-0.44;100.00;103640.31;5038058;28;20647;-66
2023/02/05 06:06:44;;;;;;;4.27;2.60;;;;;;;-0.42;100.00;103638.84;5026413;28;20267;-65
2023/02/05 06:09:10;;;;;;;2.83;2.37;;;;;;;-0.42;100.00;103633.81;5038243;28;20217;-66
2023/02/05 06:11:35;;;;;;;4.63;2.80;;;;;;;-0.39;100.00;103638.28;5038784;28;20952;-67
2023/02/05 06:14:00;;;;;;;4.03;2.70;;;;;;;-0.44;100.00;103635.28;5037323;28;20194;-66
2023/02/05 06:16:26;;;;;;;4.10;2.60;;;;;;;-0.41;100.00;103632.19;5034466;28;20225;-66
2023/02/05 06:18:52;;;;;;;3.77;2.97;;;;;;;-0.41;100.00;103620.50;5037292;28;20237;-66
2023/02/05 06:21:17;;;;;;;3.93;2.67;;;;;;;-0.40;100.00;103621.41;5039859;28;20229;-67
2023/02/05 06:23:43;;;;;;;4.07;3.00;;;;;;;-0.38;100.00;103615.81;5039220;28;20698;-66
2023/02/05 06:26:08;;;;;;;2.90;2.30;;;;;;;-0.35;100.00;103613.63;5041303;28;20231;-67
2023/02/05 06:28:34;;;;;;;4.47;2.60;;;;;;;-0.37;100.00;103615.06;5039915;28;20237;-67
2023/02/05 06:30:59;;;;;;;4.27;2.60;;;;;;;-0.35;100.00;103608.59;5044167;28;20228;-66
2023/02/05 06:33:25;;;;;;;3.73;2.73;;;;;;;-0.35;100.00;103606.06;5036209;28;20218;-67
2023/02/05 06:35:50;;;;;;;4.67;2.57;;;;;;;-0.31;100.00;103602.25;5042877;28;20345;-68
2023/02/05 06:38:15;;;;;;;3.63;2.60;;;;;;;-0.32;100.00;103606.38;5040146;28;20214;-67
2023/02/05 06:40:41;;;;;;;5.50;2.90;;;;;;;-0.30;100.00;103609.06;5039053;28;20201;-67
2023/02/05 06:43:06;;;;;;;2.97;2.63;;;;;;;-0.28;100.00;103602.56;5038846;28;20559;-66
2023/02/05 06:45:32;;;;;;;3.80;2.90;;;;;;;-0.26;100.00;103608.66;5039057;28;20818;-66
2023/02/05 06:47:57;;;;;;;4.00;2.80;;;;;;;-0.24;100.00;103609.69;5041887;28;20189;-66
2023/02/05 06:50:23;;;;;;;7.47;3.60;;;;;;;-0.20;100.00;103614.34;5037659;28;20563;-66
2023/02/05 06:52:50;;;;;;;4.03;3.10;;;;;;;-0.18;100.00;103607.88;5039938;28;20189;-65
2023/02/05 06:55:16;;;;;;;4.80;3.27;;;;;;;-0.20;100.00;103605.19;5033382;28;20721;-67
2023/02/05 06:57:41;;;;;;;3.67;2.80;;;;;;;-0.22;100.00;103610.78;5036544;28;20946;-66
2023/02/05 07:00:08;;;;;;;4.83;2.77;;;;;;;-0.19;100.00;103613.59;5054134;28;20202;-65
2023/02/05 07:02:33;;;;;;;5.77;2.73;;;;;;;-0.21;100.00;103621.00;5038061;28;20279;-66
2023/02/05 07:04:59;;;;;;;3.73;2.73;;;;;;;-0.21;100.00;103615.06;5045076;28;21080;-66
2023/02/05 07:07:24;;;;;;;4.87;3.07;;;;;;;-0.18;100.00;103625.47;5039937;28;20198;-66
2023/02/05 07:09:49;;;;;;;5.80;3.13;;;;;;;-0.16;100.00;103636.59;5035536;28;20655;-64
2023/02/05 07:12:15;;;;;;;5.73;3.40;;;;;;;-0.18;100.00;103638.06;5030896;28;20186;-66
2023/02/05 07:14:41;;;;;;;5.97;3.03;;;;;;;-0.15;100.00;103635.84;5038686;28;20206;-66
2023/02/05 07:17:07;;;;;;;4.63;3.07;;;;;;;-0.11;100.00;103632.94;5041818;28;20570;-68
2023/02/05 07:19:34;;;;;;;3.43;3.00;;;;;;;-0.10;100.00;103639.75;5027511;28;20215;-66
2023/02/05 07:21:59;;;;;;;5.43;3.07;;;;;;;-0.10;100.00;103635.63;5042857;28;20202;-66
2023/02/05 07:24:25;;;;;;;4.17;3.23;;;;;;;-0.06;100.00;103641.88;5038487;28;20253;-66
2023/02/05 07:26:50;;;;;;;9.17;3.50;;;;;;;-0.05;100.00;103642.03;5040158;28;20206;-66
2023/02/05 07:29:16;;;;;;;5.20;2.90;;;;;;;0.00;100.00;103632.47;5037168;28;20674;-67
2023/02/05 07:31:41;;;;;;;4.80;3.30;;;;;;;0.03;100.00;103633.69;5038711;28;20617;-66
2023/02/05 07:34:06;;;;;;;5.13;3.13;;;;;;;0.06;100.00;103618.88;5038721;28;20236;-65
2023/02/05 07:36:32;;;;;;;3.60;2.70;;;;;;;0.03;100.00;103625.22;5053031;28;20268;-66
2023/02/05 07:38:57;;;;;;;5.00;3.03;;;;;;;0.06;100.00;103621.38;5039849;28;20267;-66
2023/02/05 07:41:25;;;;;;;5.97;3.27;;;;;;;0.08;100.00;103619.94;5035896;28;20281;-66
2023/02/05 07:43:51;;;;;;;5.47;2.87;;;;;;;0.12;100.00;103618.63;5039694;28;20193;-65
2023/02/05 07:46:18;;;;;;;4.37;3.33;;;;;;;0.13;100.00;103627.09;5035221;28;20633;-66
2023/02/05 07:48:43;;;;;;;6.77;3.50;;;;;;;0.12;100.00;103626.19;5039094;28;20194;-66
2023/02/05 07:51:15;;;;;;;9.33;4.00;;;;;;;0.17;100.00;103634.25;5037183;28;20228;-66
2023/02/05 07:53:41;;;;;;;5.03;3.43;;;;;;;0.20;100.00;103633.81;5037700;28;20221;-65
2023/02/05 07:56:06;;;;;;;4.43;3.20;;;;;;;0.27;100.00;103622.75;5029318;28;20729;-66
2023/02/05 07:58:31;;;;;;;4.50;2.90;;;;;;;0.28;100.00;103623.66;5032264;28;20214;-65
2023/02/05 08:01:01;;;;;;;5.03;3.20;;;;;;;0.28;100.00;103623.66;5039094;28;20248;-65
2023/02/05 08:03:27;;;;;;;5.03;2.97;;;;;;;0.29;100.00;103631.38;5032329;28;20198;-66
2023/02/05 08:05:53;;;;;;;5.13;2.63;;;;;;;0.32;100.00;103635.84;5040835;28;20614;-65
2023/02/05 08:08:18;;;;;;;4.10;2.90;;;;;;;0.37;100.00;103649.81;5040016;28;20216;-65
2023/02/05 08:10:44;;;;;;;4.90;2.87;;;;;;;0.36;100.00;103650.56;5036113;28;20593;-65
2023/02/05 08:13:09;;;;;;;5.63;3.23;;;;;;;0.41;100.00;103660.34;5029388;28;20213;-65
2023/02/05 08:15:37;;;;;;;4.83;2.87;;;;;;;0.46;100.00;103639.03;5036226;28;20213;-66
2023/02/05 08:18:03;;;;;;;5.83;2.90;;;;;;;0.51;100.00;103621.91;5040804;28;20189;-65
2023/02/05 08:20:28;;;;;;;4.83;3.00;;;;;;;0.51;100.00;103624.41;5036135;28;20559;-66
2023/02/05 08:22:54;;;;;;;4.70;2.73;;;;;;;0.53;100.00;103621.31;5037905;28;20189;-67
2023/02/05 08:25:19;;;;;;;3.50;3.20;;;;;;;0.57;100.00;103625.94;5036923;28;20213;-66
2023/02/05 08:27:45;;;;;;;4.53;2.93;;;;;;;0.64;100.00;103617.41;5031564;28;20678;-66
2023/02/05 08:30:14;;;;;;;5.17;3.20;;;;;;;0.68;100.00;103611.94;5056150;28;20540;-67
2023/02/05 08:32:40;;;;;;;6.23;3.30;;;;;;;0.72;100.00;103609.00;5059451;28;20209;-66
2023/02/05 08:35:05;;;;;;;5.20;3.10;;;;;;;0.76;100.00;103627.09;5059050;28;20832;-66
2023/02/05 08:37:31;;;;;;;3.83;2.77;;;;;;;0.86;100.00;103634.00;5057940;28;20202;-66
2023/02/05 08:39:56;;;;;;;3.70;2.50;;;;;;;0.95;100.00;103618.16;5057680;28;20221;-66
2023/02/05 08:42:23;;;;;;;5.33;3.00;;;;;;;1.02;100.00;103625.63;5037557;28;20217;-65
2023/02/05 08:44:49;;;;;;;5.57;3.20;;;;;;;1.08;100.00;103628.75;5060215;28;20258;-67
2023/02/05 08:47:18;;;;;;;5.23;3.30;;;;;;;1.18;100.00;103630.56;5044669;28;20327;-66
2023/02/05 08:49:43;;;;;;;4.33;3.30;;;;;;;1.19;100.00;103630.72;5048768;28;20194;-65
2023/02/05 08:52:09;;;;;;;4.53;3.20;;;;;;;1.28;100.00;103643.41;5047420;28;20197;-66
2023/02/05 08:54:34;;;;;;;4.23;2.83;;;;;;;1.34;100.00;103639.88;5048192;28;20312;-64
2023/02/05 08:57:00;;;;;;;4.23;3.27;;;;;;;1.44;100.00;103637.53;5055662;28;20185;-66
2023/02/05 08:59:25;;;;;;;4.73;3.07;;;;;;;1.45;100.00;103638.41;5053854;28;20317;-67
2023/02/05 09:01:50;;;;;;;5.83;3.00;;;;;;;1.63;100.00;103632.66;5048463;28;20860;-66
2023/02/05 09:04:18;;;;;;;7.90;3.27;;;;;;;1.66;100.00;103638.91;5048522;28;20618;-66
2023/02/05 09:06:44;;;;;;;4.63;3.10;;;;;;;1.82;100.00;103641.31;5045798;28;20205;-66
2023/02/05 09:09:10;;;;;;;6.40;3.50;;;;;;;1.95;100.00;103641.78;5052256;28;20185;-66
2023/02/05 09:11:36;;;;;;;9.53;3.80;;;;;;;2.10;100.00;103644.19;5055579;28;20193;-66
2023/02/05 09:14:02;;;;;;;7.63;3.17;;;;;;;2.02;100.00;103642.53;5052789;28;20194;-66
2023/02/05 09:16:27;;;;;;;7.13;3.10;;;;;;;1.96;100.00;103649.53;5050146;28;20573;-65
2023/02/05 09:18:54;;;;;;;4.83;2.97;;;;;;;2.13;100.00;103657.13;5053596;28;20291;-66
2023/02/05 09:21:20;;;;;;;7.47;4.93;;;;;;;2.14;100.00;103656.38;5055604;28;20197;-67
2023/02/05 09:23:46;;;;;;;4.77;3.70;;;;;;;2.24;100.00;103658.16;5054497;28;20243;-66
2023/02/05 09:26:11;;;;;;;6.43;3.07;;;;;;;2.35;100.00;103658.47;5056063;28;20583;-65
2023/02/05 09:28:37;;;;;;;5.10;2.90;;;;;;;2.51;100.00;103656.69;5055618;28;20201;-67
2023/02/05 09:31:08;;;;;;;4.27;2.60;;;;;;;2.41;100.00;103650.59;5056786;28;20192;-65
2023/02/05 09:33:34;;;;;;;3.37;2.63;;;;;;;2.40;100.00;103664.88;5062862;28;20277;-65
2023/02/05 09:36:13;;;;;;;4.13;2.90;;;;;;;2.35;100.00;103648.34;5062517;28;20312;-66
2023/02/05 09:38:40;;;;;;;5.67;3.10;;;;;;;2.15;100.00;103649.72;5057717;28;20545;-64
2023/02/05 09:41:11;;;;;;;4.50;2.90;;;;;;;2.08;100.00;103650.75;5055486;28;20200;-65
2023/02/05 09:43:57;;;;;;;3.80;3.00;;;;;;;1.86;100.00;103643.41;5056800;28;20232;-65
2023/02/05 09:46:31;;;;;;;5.17;2.83;;;;;;;2.15;100.00;103652.22;5047130;28;20259;-65
2023/02/05 09:49:26;;;;;;;4.23;3.10;;;;;;;2.22;100.00;103658.03;5050474;28;20197;-66
2023/02/05 09:52:02;;;;;;;4.20;2.70;;;;;;;2.22;100.00;103654.59;5049711;28;20595;-66
2023/02/05 09:54:37;;;;;;;4.80;2.50;;;;;;;2.20;100.00;103651.91;5059294;28;20272;-67
2023/02/05 09:57:06;;;;;;;4.10;2.93;;;;;;;2.26;100.00;103659.22;5048670;28;20704;-65
2023/02/05 09:59:33;;;;;;;3.03;2.70;;;;;;;2.43;100.00;103652.50;5053935;28;20224;-67
2023/02/05 10:02:35;;;;;;;4.00;3.00;;;;;;;2.35;100.00;103648.34;5051293;28;20193;-65
2023/02/05 10:05:01;;;;;;;5.03;2.80;;;;;;;2.59;100.00;103644.78;5048026;28;20680;-66
2023/02/05 10:07:41;;;;;;;4.57;2.87;;;;;;;2.69;100.00;103647.44;5057887;28;20286;-66
2023/02/05 10:10:22;;;;;;;3.87;2.53;;;;;;;2.97;100.00;103640.09;5063874;28;20679;-66
2023/02/05 10:13:07;;;;;;;5.80;3.40;;;;;;;2.93;100.00;103643.06;5032796;28;20201;-65
2023/02/05 10:15:52;;;;;;;3.60;2.90;;;;;;;3.52;100.00;103635.97;5049206;28;20221;-66
2023/02/05 10:18:38;;;;;;;4.93;3.30;;;;;;;5.03;100.00;103639.66;5060658;28;20210;-67
2023/02/05 10:21:27;;;;;;;3.57;2.73;;;;;;;7.72;91.80;103626.19;5057337;28;20185;-66
2023/02/05 10:24:25;;;;;;;3.70;2.90;;;;;;;6.77;91.18;103622.97;5034001;28;20216;-67
2023/02/05 10:26:57;;;;;;;5.47;3.03;;;;;;;6.58;92.55;103625.69;5049893;28;20243;-66
2023/02/05 10:29:22;;;;;;;4.07;2.63;;;;;;;7.33;87.22;103631.69;5065741;28;20292;-65
2023/02/05 10:32:06;;;;;;;3.67;2.77;;;;;;;7.83;84.05;103635.56;5035652;28;20738;-67
2023/02/05 10:34:50;;;;;;;3.60;2.50;;;;;;;8.21;75.75;103629.09;5051384;28;20197;-66
2023/02/05 10:37:18;;;;;;;4.40;2.73;;;;;;;6.47;88.42;103623.97;5052348;28;20181;-65
2023/02/05 10:39:44;;;;;;;4.07;2.87;;;;;;;6.70;88.94;103620.69;5052877;28;20209;-66
2023/02/05 10:42:25;;;;;;;3.03;2.47;;;;;;;6.96;88.33;103627.06;5054987;28;20261;-66
2023/02/05 10:45:02;;;;;;;4.13;2.40;;;;;;;7.01;87.88;103622.34;5054485;28;20212;-66
2023/02/05 10:47:55;;;;;;;4.73;3.10;;;;;;;6.48;90.98;103635.91;5051153;28;20200;-67
2023/02/05 10:50:47;;;;;;;3.93;2.80;;;;;;;6.93;89.01;103644.66;5038421;28;20232;-67
2023/02/05 10:53:18;;;;;;;3.40;2.47;;;;;;;5.78;93.21;103660.50;5050360;28;20189;-66
2023/02/05 10:55:43;;;;;;;5.77;3.23;;;;;;;5.71;95.54;103661.63;5051529;28;20275;-66
2023/02/05 10:58:36;;;;;;;3.87;3.00;;;;;;;5.17;98.58;103654.44;5036710;28;20197;-67
2023/02/05 11:01:05;;;;;;;5.80;3.50;;;;;;;5.25;100.00;103668.66;5043241;28;20201;-66
2023/02/05 11:03:31;;;;;;;15.57;8.20;;;;;;;5.27;100.00;103677.31;5049737;28;20646;-66
2023/02/05 11:05:57;;;;;;;12.00;7.33;;;;;;;4.66;100.00;103667.66;5054188;28;20259;-65
2023/02/05 11:08:49;;;;;;;10.67;6.47;;;;;;;4.92;100.00;103675.88;5055786;28;20234;-66
2023/02/05 11:11:23;;;;;;;4.23;3.10;;;;;;;5.11;100.00;103679.25;5049137;28;20255;-66
2023/02/05 11:13:58;;;;;;;6.63;4.00;;;;;;;5.24;100.00;103686.28;5048589;28;20192;-65
2023/02/05 11:16:36;;;;;;;6.87;3.67;;;;;;;5.49;100.00;103693.63;5050863;28;20643;-66
2023/02/05 11:19:02;;;;;;;8.70;4.47;;;;;;;5.13;100.00;103704.78;5032683;28;20205;-65
2023/02/05 11:21:55;;;;;;;5.80;3.40;;;;;;;5.03;100.00;103698.03;5030538;28;20276;-65
2023/02/05 11:24:38;;;;;;;7.00;4.30;;;;;;;4.95;100.00;103690.50;5046264;28;20189;-67
2023/02/05 11:27:24;;;;;;;5.13;3.63;;;;;;;5.07;100.00;103686.50;5048904;28;20217;-66
2023/02/05 11:29:50;;;;;;;6.13;4.20;;;;;;;5.04;100.00;103692.22;5050226;28;20178;-65
2023/02/05 11:32:35;;;;;;;6.00;4.23;;;;;;;4.71;100.00;103699.41;5030889;28;20205;-66
2023/02/05 11:35:21;;;;;;;6.60;4.00;;;;;;;4.88;100.00;103701.75;5042727;28;20257;-65
2023/02/05 11:37:59;;;;;;;6.60;3.60;;;;;;;4.88;100.00;103689.06;5049519;28;20284;-65